Time;durP1;ratioP1;P1;durP2;ratioP2;P2;SDS_P1;SDS_P2;PMS_P1;PMS_P2;Temp;Humidity;BMP_temperature;BMP_pressure;BME280_temperature;BME280_humidity;BME280_pressure;Samples;Min_cycle;Max_cycle;Signal;HPM_P1;HPM_P2
2021/03/31 00:00:25;;;;;;;7.72;3.42;;;;;;;;;;5072728;28;20030;-75
2021/03/31 00:02:52;;;;;;;8.88;3.90;;;;;;;;;;5073386;28;20506;-77
2021/03/31 00:05:17;;;;;;;7.80;3.75;;;;;;;;;;5073439;28;20036;-77
2021/03/31 00:07:44;;;;;;;9.93;3.65;;;;;;;;;;5073337;28;20086;-78
2021/03/31 00:10:33;;;;;;;6.95;3.53;;;;;;;;;;5073210;28;20029;-78
2021/03/31 00:12:58;;;;;;;5.57;3.22;;;;;;;;;;5073211;28;20127;-78
2021/03/31 00:15:23;;;;;;;6.95;3.28;;;;;;;;;;5073175;28;20119;-75
2021/03/31 00:17:49;;;;;;;7.13;2.85;;;;;;;;;;5076114;28;20407;-75
2021/03/31 00:20:17;;;;;;;5.05;3.17;;;;;;;;;;5077070;28;20017;-74
2021/03/31 00:22:43;;;;;;;7.95;3.40;;;;;;;;;;5077025;28;20024;-75
2021/03/31 00:25:09;;;;;;;7.22;3.40;;;;;;;;;;5076165;28;20032;-76
2021/03/31 00:27:34;;;;;;;8.80;3.47;;;;;;;;;;5076873;28;20489;-76
2021/03/31 00:29:59;;;;;;;7.30;3.33;;;;;;;;;;5076964;28;20436;-77
2021/03/31 00:32:27;;;;;;;6.97;3.55;;;;;;;;;;5075979;28;20020;-77
2021/03/31 00:34:52;;;;;;;6.80;3.50;;;;;;;;;;5076921;28;20024;-78
2021/03/31 00:37:17;;;;;;;7.35;3.53;;;;;;;;;;5076711;28;20017;-78
2021/03/31 00:39:43;;;;;;;11.73;4.20;;;;;;;;;;5076842;28;20095;-77
2021/03/31 00:42:08;;;;;;;5.22;3.70;;;;;;;;;;5076742;28;20082;-78
2021/03/31 00:44:33;;;;;;;6.10;3.60;;;;;;;;;;5076790;28;20467;-78
2021/03/31 00:46:58;;;;;;;7.60;3.50;;;;;;;;;;5077032;28;20071;-78
2021/03/31 00:49:24;;;;;;;8.75;3.58;;;;;;;;;;5076787;28;20444;-77
2021/03/31 00:51:51;;;;;;;8.25;3.90;;;;;;;;;;5075524;28;20028;-75
2021/03/31 00:54:17;;;;;;;11.00;3.15;;;;;;;;;;5076547;28;20445;-75
2021/03/31 00:56:44;;;;;;;10.10;3.80;;;;;;;;;;5076473;28;20021;-75
2021/03/31 00:59:09;;;;;;;9.43;3.67;;;;;;;;;;5076444;28;20020;-75
2021/03/31 01:01:35;;;;;;;8.50;4.03;;;;;;;;;;5075522;28;20096;-76
2021/03/31 01:04:00;;;;;;;9.15;3.72;;;;;;;;;;5075406;28;20063;-76
2021/03/31 01:06:26;;;;;;;7.60;3.92;;;;;;;;;;5075171;28;20071;-76
2021/03/31 01:08:51;;;;;;;7.68;3.88;;;;;;;;;;5076242;28;20021;-76
2021/03/31 01:11:23;;;;;;;10.02;3.88;;;;;;;;;;5075913;28;20055;-76
2021/03/31 01:13:54;;;;;;;10.43;4.20;;;;;;;;;;5076102;28;20028;-76
2021/03/31 01:16:22;;;;;;;10.70;4.18;;;;;;;;;;5076428;28;20341;-76
2021/03/31 01:19:00;;;;;;;9.20;4.22;;;;;;;;;;5076062;28;20023;-75
2021/03/31 01:21:44;;;;;;;8.85;3.60;;;;;;;;;;5076154;28;20112;-75
2021/03/31 01:24:30;;;;;;;6.95;3.65;;;;;;;;;;5075522;28;20024;-76
2021/03/31 01:27:05;;;;;;;6.55;3.55;;;;;;;;;;5075622;28;20033;-76
2021/03/31 01:29:39;;;;;;;6.22;4.32;;;;;;;;;;5075327;28;20078;-76
2021/03/31 01:32:23;;;;;;;7.32;3.58;;;;;;;;;;5075730;28;20068;-74
2021/03/31 01:34:56;;;;;;;7.05;4.35;;;;;;;;;;5075726;28;20406;-75
2021/03/31 01:37:33;;;;;;;7.45;4.20;;;;;;;;;;5074627;28;20017;-74
2021/03/31 01:40:01;;;;;;;5.28;3.72;;;;;;;;;;5075683;28;20456;-75
2021/03/31 01:42:29;;;;;;;7.85;4.10;;;;;;;;;;5075574;28;20020;-75
2021/03/31 01:45:05;;;;;;;8.45;4.10;;;;;;;;;;5075505;28;20318;-75
2021/03/31 01:47:31;;;;;;;10.57;4.35;;;;;;;;;;5075417;28;20107;-75
2021/03/31 01:49:58;;;;;;;9.85;4.68;;;;;;;;;;5074439;28;20051;-75
2021/03/31 01:52:23;;;;;;;7.63;4.43;;;;;;;;;;5075276;28;20170;-75
2021/03/31 01:54:51;;;;;;;6.35;4.07;;;;;;;;;;5075405;28;20090;-76
2021/03/31 01:57:17;;;;;;;9.38;4.50;;;;;;;;;;5075586;28;20085;-74
2021/03/31 01:59:42;;;;;;;8.60;4.70;;;;;;;;;;5075155;28;20095;-74
2021/03/31 02:02:11;;;;;;;10.82;4.60;;;;;;;;;;5075185;28;20020;-74
2021/03/31 02:04:37;;;;;;;10.98;5.00;;;;;;;;;;5075201;28;20170;-75
2021/03/31 02:07:03;;;;;;;9.90;4.65;;;;;;;;;;5075074;28;20024;-77
2021/03/31 02:09:29;;;;;;;7.40;4.22;;;;;;;;;;5075070;28;20044;-76
2021/03/31 02:11:54;;;;;;;10.60;4.78;;;;;;;;;;5074672;28;20044;-76
2021/03/31 02:14:20;;;;;;;10.00;4.70;;;;;;;;;;5074920;28;20024;-75
2021/03/31 02:16:46;;;;;;;11.52;4.50;;;;;;;;;;5074784;28;20509;-75
2021/03/31 02:19:12;;;;;;;13.15;4.55;;;;;;;;;;5074874;28;20017;-75
2021/03/31 02:21:38;;;;;;;8.65;4.63;;;;;;;;;;5074872;28;20048;-75
2021/03/31 02:24:04;;;;;;;10.02;4.78;;;;;;;;;;5074784;28;20071;-74
2021/03/31 02:26:31;;;;;;;8.80;4.47;;;;;;;;;;5074626;28;20031;-75
2021/03/31 02:28:56;;;;;;;7.97;4.50;;;;;;;;;;5073672;28;20020;-74
2021/03/31 02:31:22;;;;;;;9.30;4.93;;;;;;;;;;5074636;28;20532;-75
2021/03/31 02:33:51;;;;;;;14.82;4.65;;;;;;;;;;5074573;28;20141;-75
2021/03/31 02:36:20;;;;;;;10.77;4.55;;;;;;;;;;5074489;28;20020;-76
2021/03/31 02:38:46;;;;;;;9.55;4.80;;;;;;;;;;5074539;28;20400;-75
2021/03/31 02:41:11;;;;;;;8.50;4.82;;;;;;;;;;5074435;28;20048;-76
2021/03/31 02:43:39;;;;;;;10.23;5.00;;;;;;;;;;5073472;28;20081;-77
2021/03/31 02:46:05;;;;;;;10.43;4.63;;;;;;;;;;5074389;28;20438;-74
2021/03/31 02:48:31;;;;;;;11.35;5.53;;;;;;;;;;5074323;28;20116;-74
2021/03/31 02:50:57;;;;;;;8.77;5.22;;;;;;;;;;5074227;28;20456;-76
2021/03/31 02:53:22;;;;;;;8.88;4.60;;;;;;;;;;5074299;28;20024;-75
2021/03/31 02:55:48;;;;;;;9.68;5.55;;;;;;;;;;5074682;28;20017;-75
2021/03/31 02:58:16;;;;;;;7.78;5.57;;;;;;;;;;5074156;28;20460;-75
2021/03/31 03:00:41;;;;;;;10.93;5.35;;;;;;;;;;5073151;28;20559;-75
2021/03/31 03:03:10;;;;;;;8.65;5.32;;;;;;;;;;5074069;28;20111;-74
2021/03/31 03:05:37;;;;;;;9.73;5.57;;;;;;;;;;5074101;28;20024;-75
2021/03/31 03:08:03;;;;;;;10.80;5.47;;;;;;;;;;5073069;28;20384;-74
2021/03/31 03:10:31;;;;;;;11.13;5.28;;;;;;;;;;5073956;28;20031;-75
2021/03/31 03:12:57;;;;;;;11.90;5.78;;;;;;;;;;5073669;28;20044;-74
2021/03/31 03:15:23;;;;;;;9.93;5.28;;;;;;;;;;5072928;28;20031;-74
2021/03/31 03:17:51;;;;;;;11.27;5.63;;;;;;;;;;5073990;28;20100;-74
2021/03/31 03:20:17;;;;;;;9.25;5.65;;;;;;;;;;5074406;28;20024;-74
2021/03/31 03:22:46;;;;;;;12.32;5.60;;;;;;;;;;5074339;28;20044;-75
2021/03/31 03:25:12;;;;;;;10.02;5.47;;;;;;;;;;5074176;28;20024;-75
2021/03/31 03:27:40;;;;;;;11.85;5.90;;;;;;;;;;5073771;28;20095;-75
2021/03/31 03:30:10;;;;;;;10.18;5.65;;;;;;;;;;5073360;28;20021;-75
2021/03/31 03:32:38;;;;;;;10.98;5.88;;;;;;;;;;5073681;28;20048;-76
2021/03/31 03:35:03;;;;;;;10.73;5.95;;;;;;;;;;5073757;28;20020;-75
2021/03/31 03:37:28;;;;;;;9.63;6.05;;;;;;;;;;5073623;28;20354;-75
2021/03/31 03:39:54;;;;;;;9.30;5.90;;;;;;;;;;5073546;28;20029;-74
2021/03/31 03:42:21;;;;;;;12.50;6.10;;;;;;;;;;5073627;28;20020;-74
2021/03/31 03:44:46;;;;;;;10.75;6.07;;;;;;;;;;5073581;28;20345;-74
2021/03/31 03:47:12;;;;;;;11.55;6.15;;;;;;;;;;5073571;28;20028;-75
2021/03/31 03:49:37;;;;;;;11.40;6.15;;;;;;;;;;5073574;28;20025;-75
2021/03/31 03:52:04;;;;;;;10.75;6.70;;;;;;;;;;5075152;28;20182;-74
2021/03/31 03:54:29;;;;;;;12.60;6.25;;;;;;;;;;5077787;28;20352;-74
2021/03/31 03:56:54;;;;;;;8.65;6.07;;;;;;;;;;5077520;28;20016;-75
2021/03/31 03:59:23;;;;;;;12.63;6.28;;;;;;;;;;5077510;28;20322;-75
2021/03/31 04:01:49;;;;;;;12.50;6.30;;;;;;;;;;5076611;28;20186;-74
2021/03/31 04:04:15;;;;;;;10.15;6.25;;;;;;;;;;5077581;28;20028;-75
2021/03/31 04:06:41;;;;;;;10.50;6.18;;;;;;;;;;5077692;28;20035;-75
2021/03/31 04:09:09;;;;;;;7.90;5.72;;;;;;;;;;5077365;28;20032;-75
2021/03/31 04:11:35;;;;;;;12.52;6.22;;;;;;;;;;5076987;28;20041;-75
2021/03/31 04:14:01;;;;;;;11.20;5.65;;;;;;;;;;5077355;28;20039;-75
2021/03/31 04:16:27;;;;;;;13.90;6.70;;;;;;;;;;5076402;28;20032;-76
2021/03/31 04:18:53;;;;;;;11.77;6.40;;;;;;;;;;5077340;28;20013;-76
2021/03/31 04:21:18;;;;;;;13.18;6.47;;;;;;;;;;5076264;28;20313;-76
2021/03/31 04:23:43;;;;;;;11.93;6.32;;;;;;;;;;5077183;28;20047;-76
2021/03/31 04:26:09;;;;;;;10.93;6.43;;;;;;;;;;5077152;28;20448;-77
2021/03/31 04:28:35;;;;;;;13.95;6.22;;;;;;;;;;5077290;28;20074;-77
2021/03/31 04:31:00;;;;;;;10.15;5.78;;;;;;;;;;5076980;28;20024;-77
2021/03/31 04:33:26;;;;;;;9.02;6.38;;;;;;;;;;5076986;28;20020;-76
2021/03/31 04:35:57;;;;;;;13.25;6.22;;;;;;;;;;5075247;28;20020;-76
2021/03/31 04:38:22;;;;;;;11.00;6.22;;;;;;;;;;5061716;28;20039;-76
2021/03/31 04:41:00;;;;;;;11.68;5.85;;;;;;;;;;5055818;28;20433;-76
2021/03/31 04:43:27;;;;;;;9.40;5.93;;;;;;;;;;5075482;28;20052;-76
2021/03/31 04:45:55;;;;;;;10.80;6.70;;;;;;;;;;5076667;28;20021;-76
2021/03/31 04:48:20;;;;;;;13.52;6.55;;;;;;;;;;5068193;28;20013;-76
2021/03/31 04:50:46;;;;;;;9.00;5.75;;;;;;;;;;5056651;28;20040;-76
2021/03/31 04:53:11;;;;;;;12.85;5.82;;;;;;;;;;5056526;28;20060;-76
2021/03/31 04:55:38;;;;;;;16.85;7.20;;;;;;;;;;5060986;28;20028;-75
2021/03/31 04:58:06;;;;;;;9.77;6.03;;;;;;;;;;5075594;28;20341;-75
2021/03/31 05:00:31;;;;;;;8.82;6.25;;;;;;;;;;5076467;28;20091;-76
2021/03/31 05:02:56;;;;;;;12.40;6.07;;;;;;;;;;5076223;28;20103;-76
2021/03/31 05:05:21;;;;;;;13.70;6.22;;;;;;;;;;5076409;28;20459;-77
2021/03/31 05:07:47;;;;;;;11.38;6.50;;;;;;;;;;5076325;28;20024;-76
2021/03/31 05:10:15;;;;;;;12.65;6.57;;;;;;;;;;5076310;28;20052;-76
2021/03/31 05:12:40;;;;;;;16.75;7.65;;;;;;;;;;5076012;28;20373;-75
2021/03/31 05:15:06;;;;;;;14.52;7.28;;;;;;;;;;5076194;28;20024;-75
2021/03/31 05:17:40;;;;;;;12.50;6.40;;;;;;;;;;5075173;28;20020;-75
2021/03/31 05:20:06;;;;;;;11.18;6.55;;;;;;;;;;5076206;28;20027;-75
2021/03/31 05:22:31;;;;;;;10.32;6.57;;;;;;;;;;5075397;28;20020;-76
2021/03/31 05:24:56;;;;;;;13.00;6.43;;;;;;;;;;5076044;28;20035;-76
2021/03/31 05:27:21;;;;;;;12.57;6.25;;;;;;;;;;5076051;28;20020;-75
2021/03/31 05:29:47;;;;;;;11.82;5.85;;;;;;;;;;5075958;28;20017;-77
2021/03/31 05:32:12;;;;;;;15.32;6.43;;;;;;;;;;5074866;28;20332;-77
2021/03/31 05:34:38;;;;;;;13.20;6.78;;;;;;;;;;5075864;28;20021;-77
2021/03/31 05:37:03;;;;;;;9.77;6.15;;;;;;;;;;5075704;28;20020;-77
2021/03/31 05:39:28;;;;;;;14.88;7.20;;;;;;;;;;5074694;28;20027;-77
2021/03/31 05:41:56;;;;;;;12.38;6.95;;;;;;;;;;5074725;28;20033;-77
2021/03/31 05:44:21;;;;;;;9.73;6.22;;;;;;;;;;5069526;28;20025;-77
2021/03/31 05:46:49;;;;;;;12.90;6.82;;;;;;;;;;5055642;28;20081;-78
2021/03/31 05:49:15;;;;;;;12.07;7.10;;;;;;;;;;5055664;28;20033;-78
2021/03/31 05:51:42;;;;;;;9.23;6.60;;;;;;;;;;5054883;28;20017;-74
2021/03/31 05:54:08;;;;;;;9.60;6.32;;;;;;;;;;5072048;28;20013;-74
2021/03/31 05:56:33;;;;;;;11.82;6.68;;;;;;;;;;5075422;28;20366;-74
2021/03/31 05:59:02;;;;;;;13.07;6.47;;;;;;;;;;5075722;28;20067;-75
2021/03/31 06:01:28;;;;;;;10.98;6.70;;;;;;;;;;5075169;28;20020;-75
2021/03/31 06:03:55;;;;;;;11.63;6.50;;;;;;;;;;5075199;28;20103;-78
2021/03/31 06:06:20;;;;;;;8.93;6.50;;;;;;;;;;5069871;28;20031;-77
2021/03/31 06:08:46;;;;;;;11.15;6.50;;;;;;;;;;5063226;28;20017;-80
2021/03/31 06:11:12;;;;;;;11.35;6.38;;;;;;;;;;5055178;28;20125;-77
2021/03/31 06:13:55;;;;;;;11.68;6.22;;;;;;;;;;5054623;28;20017;-77
2021/03/31 06:16:34;;;;;;;11.77;6.28;;;;;;;;;;5055020;28;20096;-79
2021/03/31 06:19:18;;;;;;;10.77;6.50;;;;;;;;;;5054659;28;20449;-76
2021/03/31 06:22:21;;;;;;;12.70;6.43;;;;;;;;;;5054861;28;20036;-75
2021/03/31 06:25:25;;;;;;;10.60;6.30;;;;;;;;;;5075223;28;20140;-76
2021/03/31 06:27:57;;;;;;;9.77;5.90;;;;;;;;;;5053454;28;20040;-75
2021/03/31 06:30:23;;;;;;;10.50;6.55;;;;;;;;;;5068199;28;20025;-76
2021/03/31 06:32:54;;;;;;;10.77;6.15;;;;;;;;;;5054639;28;20021;-76
2021/03/31 06:35:23;;;;;;;12.55;5.93;;;;;;;;;;5056219;28;20429;-75
2021/03/31 06:37:49;;;;;;;13.55;6.30;;;;;;;;;;5072250;28;20102;-78
2021/03/31 06:40:37;;;;;;;16.40;6.35;;;;;;;;;;5073983;28;20444;-78
2021/03/31 06:43:12;;;;;;;11.65;6.03;;;;;;;;;;5074403;28;20028;-74
2021/03/31 06:45:39;;;;;;;13.15;6.60;;;;;;;;;;5071604;28;20392;-77
2021/03/31 06:48:08;;;;;;;10.77;6.55;;;;;;;;;;5081145;28;20024;-76
2021/03/31 06:50:37;;;;;;;9.85;6.78;;;;;;;;;;5080485;28;20036;-76
2021/03/31 06:53:06;;;;;;;10.45;6.80;;;;;;;;;;5075304;28;20388;-78
2021/03/31 06:55:31;;;;;;;9.90;6.78;;;;;;;;;;5083882;28;20016;-78
2021/03/31 06:57:58;;;;;;;10.63;6.22;;;;;;;;;;5082821;28;20095;-79
2021/03/31 07:00:24;;;;;;;17.15;6.53;;;;;;;;;;5082048;28;20020;-76
2021/03/31 07:02:50;;;;;;;10.93;6.40;;;;;;;;;;5089268;28;20440;-78
2021/03/31 07:05:16;;;;;;;14.55;6.40;;;;;;;;;;5075533;28;20032;-75
2021/03/31 07:07:42;;;;;;;9.65;6.63;;;;;;;;;;5081455;28;20081;-77
2021/03/31 07:10:16;;;;;;;13.18;7.15;;;;;;;;;;5078125;28;20471;-78
2021/03/31 07:12:43;;;;;;;11.93;6.55;;;;;;;;;;5073788;28;20063;-77
2021/03/31 07:15:09;;;;;;;11.77;7.07;;;;;;;;;;5088508;28;20017;-77
2021/03/31 07:17:35;;;;;;;11.50;6.70;;;;;;;;;;5088728;28;20008;-78
2021/03/31 07:20:00;;;;;;;12.15;6.72;;;;;;;;;;5078931;28;20099;-77
2021/03/31 07:22:25;;;;;;;14.02;7.88;;;;;;;;;;5079477;28;20111;-77
2021/03/31 07:24:53;;;;;;;8.98;6.13;;;;;;;;;;5077918;28;20103;-76
2021/03/31 07:27:18;;;;;;;12.52;6.97;;;;;;;;;;5073539;28;20077;-77
2021/03/31 07:30:07;;;;;;;9.32;6.30;;;;;;;;;;5079336;28;20024;-79
2021/03/31 07:32:39;;;;;;;12.43;6.35;;;;;;;;;;5078792;28;20115;-76
2021/03/31 07:35:05;;;;;;;13.45;6.30;;;;;;;;;;5076531;28;20027;-75
2021/03/31 07:37:31;;;;;;;12.27;6.18;;;;;;;;;;5078104;28;20020;-77
2021/03/31 07:40:03;;;;;;;9.65;6.03;;;;;;;;;;5078102;28;20066;-77
2021/03/31 07:42:31;;;;;;;11.02;5.95;;;;;;;;;;5078100;28;20016;-79
2021/03/31 07:44:58;;;;;;;12.00;6.40;;;;;;;;;;5076480;28;20020;-76
2021/03/31 07:47:24;;;;;;;10.68;6.55;;;;;;;;;;5070820;28;20047;-79
2021/03/31 07:49:52;;;;;;;9.45;6.13;;;;;;;;;;5079193;28;20029;-77
2021/03/31 07:52:17;;;;;;;10.10;6.20;;;;;;;;;;5077896;28;20082;-75
2021/03/31 07:54:42;;;;;;;11.50;6.13;;;;;;;;;;5077818;28;20021;-78
2021/03/31 07:57:24;;;;;;;9.95;5.85;;;;;;;;;;5079920;28;20099;-75
2021/03/31 07:59:50;;;;;;;12.07;6.25;;;;;;;;;;5080560;28;20047;-78
2021/03/31 08:02:15;;;;;;;10.70;6.32;;;;;;;;;;5087790;28;20444;-75
2021/03/31 08:04:40;;;;;;;10.20;5.93;;;;;;;;;;5081183;28;20048;-76
2021/03/31 08:07:20;;;;;;;10.82;6.68;;;;;;;;;;5089825;28;20099;-77
2021/03/31 08:09:47;;;;;;;10.57;6.55;;;;;;;;;;5074686;28;20433;-74
2021/03/31 08:12:26;;;;;;;10.75;6.43;;;;;;;;;;5075124;28;20048;-78
2021/03/31 08:14:52;;;;;;;9.23;5.90;;;;;;;;;;5074546;28;20509;-77
2021/03/31 08:17:19;;;;;;;11.18;6.47;;;;;;;;;;5076847;28;20020;-75
2021/03/31 08:19:55;;;;;;;10.70;6.63;;;;;;;;;;5078190;28;20339;-75
2021/03/31 08:22:27;;;;;;;11.80;6.47;;;;;;;;;;5072702;28;20326;-77
2021/03/31 08:24:59;;;;;;;12.73;6.45;;;;;;;;;;5073813;28;20031;-74
2021/03/31 08:27:24;;;;;;;12.65;6.78;;;;;;;;;;5072784;28;20020;-74
2021/03/31 08:29:53;;;;;;;12.70;6.45;;;;;;;;;;5080653;28;20039;-74
2021/03/31 08:32:19;;;;;;;10.40;6.20;;;;;;;;;;5081465;28;20036;-78
2021/03/31 08:34:45;;;;;;;13.23;6.30;;;;;;;;;;5088313;28;20521;-76
2021/03/31 08:37:21;;;;;;;14.02;7.13;;;;;;;;;;5077362;28;20052;-76
2021/03/31 08:39:46;;;;;;;12.88;6.78;;;;;;;;;;5088744;28;20028;-76
2021/03/31 08:42:11;;;;;;;13.18;6.72;;;;;;;;;;5087309;28;20020;-75
2021/03/31 08:44:38;;;;;;;10.13;7.07;;;;;;;;;;5082181;28;20119;-78
2021/03/31 08:47:21;;;;;;;11.75;6.38;;;;;;;;;;5078362;28;20055;-75
2021/03/31 08:49:50;;;;;;;11.15;6.38;;;;;;;;;;5083183;28;20104;-75
2021/03/31 08:52:17;;;;;;;18.38;7.32;;;;;;;;;;5078300;28;20082;-76
2021/03/31 08:54:48;;;;;;;12.60;7.00;;;;;;;;;;5075970;28;20028;-75
2021/03/31 08:57:13;;;;;;;12.60;6.60;;;;;;;;;;5078572;28;20035;-75
2021/03/31 08:59:42;;;;;;;13.50;7.47;;;;;;;;;;5090329;28;20005;-75
2021/03/31 09:02:11;;;;;;;11.77;6.68;;;;;;;;;;5076307;28;20048;-81
2021/03/31 09:04:38;;;;;;;14.00;7.53;;;;;;;;;;5089692;28;20024;-76
2021/03/31 09:07:05;;;;;;;16.92;7.10;;;;;;;;;;5071790;28;20028;-84
2021/03/31 09:09:32;;;;;;;14.70;6.53;;;;;;;;;;5091381;28;20012;-72
2021/03/31 09:11:58;;;;;;;15.32;6.50;;;;;;;;;;5075661;28;20065;-72
2021/03/31 09:14:27;;;;;;;15.35;7.15;;;;;;;;;;5079652;28;20020;-72
2021/03/31 09:16:55;;;;;;;13.13;7.10;;;;;;;;;;5078246;28;20020;-73
2021/03/31 09:19:23;;;;;;;14.32;7.63;;;;;;;;;;5062791;28;20019;-78
2021/03/31 09:21:48;;;;;;;14.00;7.70;;;;;;;;;;5088809;28;20024;-82
2021/03/31 09:24:17;;;;;;;11.45;7.80;;;;;;;;;;5071947;28;20349;-75
2021/03/31 09:26:53;;;;;;;13.45;7.78;;;;;;;;;;5082277;28;20032;-74
2021/03/31 09:29:19;;;;;;;15.23;7.18;;;;;;;;;;5086682;28;20028;-75
2021/03/31 09:31:45;;;;;;;17.80;7.57;;;;;;;;;;5088222;28;20031;-75
2021/03/31 09:34:10;;;;;;;15.82;8.73;;;;;;;;;;5085290;28;20482;-75
2021/03/31 09:36:36;;;;;;;12.82;7.47;;;;;;;;;;5081626;28;20127;-74
2021/03/31 09:39:05;;;;;;;14.02;7.82;;;;;;;;;;5092177;28;20039;-74
2021/03/31 09:41:33;;;;;;;10.77;7.68;;;;;;;;;;5080412;28;20069;-75
2021/03/31 09:43:59;;;;;;;12.90;8.27;;;;;;;;;;5086856;28;20020;-74
2021/03/31 09:46:25;;;;;;;12.95;7.32;;;;;;;;;;5076226;28;20036;-75
2021/03/31 09:48:51;;;;;;;15.07;8.02;;;;;;;;;;5086754;28;20034;-74
2021/03/31 09:51:18;;;;;;;15.32;8.27;;;;;;;;;;5069235;28;20028;-77
2021/03/31 09:53:44;;;;;;;16.42;8.10;;;;;;;;;;5090663;28;20016;-74
2021/03/31 09:56:10;;;;;;;13.63;7.82;;;;;;;;;;5076111;28;20020;-73
2021/03/31 09:58:35;;;;;;;13.52;8.05;;;;;;;;;;5074565;28;20498;-75
2021/03/31 10:01:00;;;;;;;11.93;8.13;;;;;;;;;;5074732;28;20029;-78
2021/03/31 10:03:27;;;;;;;13.68;7.90;;;;;;;;;;5075248;28;20078;-78
2021/03/31 10:05:52;;;;;;;13.13;7.80;;;;;;;;;;5090374;28;20160;-78
2021/03/31 10:08:21;;;;;;;11.93;7.45;;;;;;;;;;5071330;28;20026;-81
2021/03/31 10:10:53;;;;;;;10.73;7.55;;;;;;;;;;5076379;28;20063;-78
2021/03/31 10:13:23;;;;;;;11.73;7.40;;;;;;;;;;5074737;28;20041;-82
2021/03/31 10:16:00;;;;;;;15.82;7.75;;;;;;;;;;5074866;28;20387;-80
2021/03/31 10:18:27;;;;;;;11.52;7.38;;;;;;;;;;5075143;28;20317;-81
2021/03/31 10:20:56;;;;;;;14.05;7.90;;;;;;;;;;5074848;28;20101;-79
2021/03/31 10:23:49;;;;;;;12.70;7.72;;;;;;;;;;5072711;28;20170;-83
2021/03/31 10:26:19;;;;;;;13.60;7.20;;;;;;;;;;5082809;28;20039;-82
2021/03/31 10:28:45;;;;;;;12.43;7.75;;;;;;;;;;5088592;28;20086;-85
2021/03/31 10:31:36;;;;;;;8.82;6.63;;;;;;;;;;5085221;28;20074;-85
2021/03/31 10:34:04;;;;;;;12.18;6.97;;;;;;;;;;5074235;28;20039;-85
2021/03/31 10:50:57;;;;;;;12.68;5.75;;;;;;;;;;5086699;28;20104;-85
2021/03/31 10:56:20;;;;;;;6.88;3.80;;;;;;;;;;5054112;28;20430;-85
2021/03/31 10:58:46;;;;;;;8.00;4.45;;;;;;;;;;5054512;28;20024;-86
2021/03/31 11:01:11;;;;;;;6.88;4.03;;;;;;;;;;5080774;28;20452;-86
2021/03/31 11:03:37;;;;;;;10.30;3.90;;;;;;;;;;5094873;28;20028;-85
2021/03/31 11:06:03;;;;;;;6.18;3.70;;;;;;;;;;5094751;28;20120;-85
2021/03/31 11:08:28;;;;;;;6.45;3.28;;;;;;;;;;5085955;28;20020;-86
2021/03/31 11:10:53;;;;;;;5.22;2.92;;;;;;;;;;5072463;28;20024;-85
2021/03/31 11:13:19;;;;;;;3.77;2.63;;;;;;;;;;5059253;28;20052;-86
2021/03/31 11:15:45;;;;;;;5.72;2.85;;;;;;;;;;5066712;28;20088;-85
2021/03/31 11:25:52;;;;;;;4.68;2.25;;;;;;;;;;5065067;28;20031;-88
2021/03/31 11:28:21;;;;;;;5.65;2.03;;;;;;;;;;5101953;28;20291;-88
2021/03/31 11:30:46;;;;;;;3.75;1.70;;;;;;;;;;5094835;28;20059;-80
2021/03/31 11:33:14;;;;;;;4.28;1.92;;;;;;;;;;5092569;28;20028;-86
2021/03/31 11:35:40;;;;;;;3.35;1.95;;;;;;;;;;5075750;28;20035;-84
2021/03/31 11:38:41;;;;;;;4.00;1.88;;;;;;;;;;5094428;28;20071;-85
2021/03/31 11:41:07;;;;;;;3.28;1.70;;;;;;;;;;5092568;28;20020;-85
2021/03/31 11:43:33;;;;;;;4.43;2.03;;;;;;;;;;5078888;28;20028;-84
2021/03/31 11:45:58;;;;;;;5.65;1.95;;;;;;;;;;5076571;28;20357;-85
2021/03/31 11:48:24;;;;;;;4.33;1.70;;;;;;;;;;5091336;28;20087;-84
2021/03/31 11:54:14;;;;;;;2.58;1.40;;;;;;;;;;5031200;28;20036;-81
2021/03/31 11:56:42;;;;;;;3.45;1.65;;;;;;;;;;5031119;28;20017;-81
2021/03/31 11:59:07;;;;;;;4.45;1.40;;;;;;;;;;5051290;28;20037;-82
2021/03/31 12:01:36;;;;;;;3.57;1.60;;;;;;;;;;5073953;28;20080;-81
2021/03/31 12:04:01;;;;;;;5.50;1.38;;;;;;;;;;5089787;28;20061;-80
2021/03/31 12:06:54;;;;;;;3.75;1.48;;;;;;;;;;5077369;28;20020;-81
2021/03/31 12:09:20;;;;;;;3.53;1.63;;;;;;;;;;5094724;28;20441;-82
2021/03/31 12:11:45;;;;;;;4.43;1.50;;;;;;;;;;5085358;28;20045;-84
2021/03/31 12:14:10;;;;;;;4.57;1.50;;;;;;;;;;5093202;28;20012;-83
2021/03/31 12:16:36;;;;;;;5.93;1.80;;;;;;;;;;5071476;28;20178;-86
2021/03/31 12:19:03;;;;;;;6.47;1.90;;;;;;;;;;5077758;28;20012;-83
2021/03/31 12:21:28;;;;;;;4.50;2.00;;;;;;;;;;5081615;28;20344;-82
2021/03/31 12:23:58;;;;;;;4.90;2.00;;;;;;;;;;5076638;28;20032;-82
2021/03/31 12:26:24;;;;;;;4.15;1.58;;;;;;;;;;5077249;28;20021;-84
2021/03/31 12:28:55;;;;;;;3.00;1.60;;;;;;;;;;5077491;28;20039;-82
2021/03/31 12:31:52;;;;;;;3.97;2.00;;;;;;;;;;5074734;28;20032;-84
2021/03/31 12:34:18;;;;;;;3.03;1.50;;;;;;;;;;5076835;28;20325;-84
2021/03/31 12:36:43;;;;;;;3.07;1.80;;;;;;;;;;5080183;28;20027;-83
2021/03/31 12:42:19;;;;;;;5.38;1.67;;;;;;;;;;5077356;28;20144;-85
2021/03/31 12:44:46;;;;;;;4.70;1.85;;;;;;;;;;5079758;28;20360;-84
2021/03/31 12:47:15;;;;;;;12.35;2.25;;;;;;;;;;5078715;28;20445;-83
2021/03/31 12:49:41;;;;;;;4.38;2.13;;;;;;;;;;5077597;28;20127;-81
2021/03/31 12:52:09;;;;;;;6.18;1.90;;;;;;;;;;5076566;28;20125;-84
2021/03/31 12:54:51;;;;;;;5.20;2.25;;;;;;;;;;5076229;28;20513;-88
2021/03/31 12:57:16;;;;;;;6.15;2.63;;;;;;;;;;5076383;28;20129;-85
2021/03/31 12:59:43;;;;;;;5.32;2.10;;;;;;;;;;5074343;28;20456;-85
2021/03/31 13:02:09;;;;;;;3.97;2.00;;;;;;;;;;5069874;28;20020;-86
2021/03/31 13:04:37;;;;;;;3.55;2.00;;;;;;;;;;5074978;28;20419;-90
2021/03/31 13:07:04;;;;;;;5.10;2.53;;;;;;;;;;5076706;28;20084;-89
2021/03/31 13:09:29;;;;;;;6.07;2.38;;;;;;;;;;5075597;28;20027;-83
2021/03/31 13:11:56;;;;;;;8.97;2.70;;;;;;;;;;5076135;28;20044;-84
2021/03/31 13:17:04;;;;;;;3.60;1.88;;;;;;;;;;5070973;28;20016;-84
2021/03/31 13:22:42;;;;;;;4.35;1.73;;;;;;;;;;5083704;28;20435;-85
2021/03/31 13:31:13;;;;;;;4.05;2.22;;;;;;;;;;5073255;28;20487;-82
2021/03/31 13:33:22;;;;;;;5.00;2.03;;;;;;;;;;5069931;28;20052;-80
2021/03/31 13:41:12;;;;;;;4.43;2.22;;;;;;;;;;5062322;28;20454;-76
2021/03/31 13:43:38;;;;;;;5.75;2.35;;;;;;;;;;5055660;28;20013;-77
2021/03/31 13:46:03;;;;;;;5.70;2.40;;;;;;;;;;5065323;28;20421;-77
2021/03/31 13:48:38;;;;;;;4.70;2.50;;;;;;;;;;5095737;28;20323;-76
2021/03/31 13:51:05;;;;;;;8.27;2.85;;;;;;;;;;5095706;28;20329;-76
2021/03/31 13:53:32;;;;;;;9.27;2.40;;;;;;;;;;5083607;28;20345;-76
2021/03/31 13:55:58;;;;;;;7.95;2.40;;;;;;;;;;5074995;28;20044;-77
2021/03/31 13:58:23;;;;;;;4.47;2.60;;;;;;;;;;5080106;28;20035;-83
2021/03/31 14:00:48;;;;;;;11.63;2.63;;;;;;;;;;5087293;28;20082;-83
2021/03/31 14:03:13;;;;;;;12.93;2.90;;;;;;;;;;5075903;28;20059;-81
2021/03/31 14:05:38;;;;;;;7.27;3.20;;;;;;;;;;5075131;28;20259;-79
2021/03/31 14:08:04;;;;;;;6.10;3.10;;;;;;;;;;5075482;28;20020;-82
2021/03/31 14:10:29;;;;;;;7.97;3.10;;;;;;;;;;5073389;28;20293;-82
2021/03/31 14:12:57;;;;;;;5.07;2.80;;;;;;;;;;5075880;28;20065;-82
2021/03/31 14:15:22;;;;;;;8.35;3.10;;;;;;;;;;5076822;28;20297;-84
2021/03/31 14:17:48;;;;;;;5.68;2.75;;;;;;;;;;5076384;28;20456;-83
2021/03/31 14:20:14;;;;;;;6.45;2.60;;;;;;;;;;5076390;28;20373;-82
2021/03/31 14:22:40;;;;;;;7.03;2.67;;;;;;;;;;5078676;28;20027;-82
2021/03/31 14:25:15;;;;;;;11.48;2.75;;;;;;;;;;5077098;28;20017;-82
2021/03/31 14:27:41;;;;;;;5.57;2.90;;;;;;;;;;5075309;28;20048;-79
2021/03/31 14:30:11;;;;;;;7.00;2.30;;;;;;;;;;5076430;28;20033;-76
2021/03/31 14:32:37;;;;;;;6.15;2.30;;;;;;;;;;5078233;28;20016;-79
2021/03/31 14:35:03;;;;;;;4.85;2.08;;;;;;;;;;5076149;28;20116;-79
2021/03/31 14:37:28;;;;;;;4.93;2.03;;;;;;;;;;5074598;28;20036;-81
2021/03/31 14:39:54;;;;;;;4.60;2.47;;;;;;;;;;5073862;28;20021;-77
2021/03/31 14:42:19;;;;;;;6.32;2.92;;;;;;;;;;5074538;28;20341;-76
2021/03/31 14:44:45;;;;;;;4.90;2.50;;;;;;;;;;5075128;28;20016;-78
2021/03/31 14:47:10;;;;;;;6.20;2.60;;;;;;;;;;5077186;28;20028;-79
2021/03/31 14:49:38;;;;;;;13.50;4.63;;;;;;;;;;5075238;28;20657;-88
2021/03/31 14:59:59;;;;;;;8.68;2.45;;;;;;;;;;5077058;28;20020;-83
2021/03/31 15:02:27;;;;;;;5.70;2.10;;;;;;;;;;5070653;28;20483;-82
2021/03/31 15:04:53;;;;;;;4.07;2.70;;;;;;;;;;5079322;28;20016;-85
2021/03/31 15:07:18;;;;;;;7.60;2.37;;;;;;;;;;5074702;28;20028;-86
2021/03/31 15:09:44;;;;;;;7.97;3.40;;;;;;;;;;5074778;28;20016;-85
2021/03/31 15:12:12;;;;;;;11.30;2.65;;;;;;;;;;5073961;28;20313;-84
2021/03/31 15:14:38;;;;;;;3.63;1.92;;;;;;;;;;5072945;28;20056;-84
2021/03/31 15:17:05;;;;;;;5.20;1.80;;;;;;;;;;5073765;28;20016;-83
2021/03/31 15:22:25;;;;;;;5.00;1.17;;;;;;;;;;5074998;28;20028;-87
2021/03/31 15:24:41;;;;;;;5.20;1.40;;;;;;;;;;5075052;28;20025;-82
2021/03/31 15:27:07;;;;;;;5.63;2.00;;;;;;;;;;5079393;28;20028;-78
2021/03/31 15:29:33;;;;;;;2.83;1.33;;;;;;;;;;5094027;28;20426;-81
2021/03/31 15:32:00;;;;;;;5.30;1.63;;;;;;;;;;5079980;28;20099;-83
2021/03/31 15:34:26;;;;;;;3.65;1.42;;;;;;;;;;5076045;28;20441;-80
2021/03/31 15:36:51;;;;;;;3.55;1.50;;;;;;;;;;5093557;28;20043;-87
2021/03/31 15:39:17;;;;;;;5.43;1.65;;;;;;;;;;5075641;28;20025;-89